sensor_id;sensor_type;location;lat;lon;timestamp;temperature;humidity
20204;DHT22;10261;49.010;12.034;2023-01-31T00:00:08;5.70;99.90
20204;DHT22;10261;49.010;12.034;2023-01-31T00:01:12;5.80;99.90
20204;DHT22;10261;49.010;12.034;2023-01-31T00:02:15;5.70;99.90
20204;DHT22;10261;49.010;12.034;2023-01-31T00:03:17;5.70;99.90
20204;DHT22;10261;49.010;12.034;2023-01-31T00:04:20;5.70;99.90
20204;DHT22;10261;49.010;12.034;2023-01-31T00:05:22;5.70;99.90
20204;DHT22;10261;49.010;12.034;2023-01-31T00:06:27;5.70;99.90
20204;DHT22;10261;49.010;12.034;2023-01-31T00:07:29;5.80;99.90
20204;DHT22;10261;49.010;12.034;2023-01-31T00:08:32;5.70;99.90
20204;DHT22;10261;49.010;12.034;2023-01-31T00:09:34;5.70;99.90
20204;DHT22;10261;49.010;12.034;2023-01-31T00:10:37;5.70;99.90
20204;DHT22;10261;49.010;12.034;2023-01-31T00:11:39;5.70;99.90
20204;DHT22;10261;49.010;12.034;2023-01-31T00:12:42;5.70;99.90
20204;DHT22;10261;49.010;12.034;2023-01-31T00:13:45;5.70;99.90
20204;DHT22;10261;49.010;12.034;2023-01-31T00:14:49;5.70;99.90
20204;DHT22;10261;49.010;12.034;2023-01-31T00:15:54;5.70;99.90
20204;DHT22;10261;49.010;12.034;2023-01-31T00:16:57;5.70;99.90
20204;DHT22;10261;49.010;12.034;2023-01-31T00:18:00;5.70;99.90
20204;DHT22;10261;49.010;12.034;2023-01-31T00:19:03;5.70;99.90
20204;DHT22;10261;49.010;12.034;2023-01-31T00:20:07;5.70;99.90
20204;DHT22;10261;49.010;12.034;2023-01-31T00:21:11;5.70;99.90
20204;DHT22;10261;49.010;12.034;2023-01-31T00:22:14;5.70;99.90
20204;DHT22;10261;49.010;12.034;2023-01-31T00:23:16;5.80;99.90
20204;DHT22;10261;49.010;12.034;2023-01-31T00:24:19;5.70;99.90
20204;DHT22;10261;49.010;12.034;2023-01-31T00:25:21;5.70;99.90
20204;DHT22;10261;49.010;12.034;2023-01-31T00:26:25;5.70;99.90
20204;DHT22;10261;49.010;12.034;2023-01-31T00:27:27;5.70;99.90
20204;DHT22;10261;49.010;12.034;2023-01-31T00:28:30;5.60;99.90
20204;DHT22;10261;49.010;12.034;2023-01-31T00:29:32;5.60;99.90
20204;DHT22;10261;49.010;12.034;2023-01-31T00:30:37;5.60;99.90
20204;DHT22;10261;49.010;12.034;2023-01-31T00:31:39;5.60;99.90
20204;DHT22;10261;49.010;12.034;2023-01-31T00:32:42;5.60;99.90
20204;DHT22;10261;49.010;12.034;2023-01-31T00:33:45;5.70;99.90
20204;DHT22;10261;49.010;12.034;2023-01-31T00:34:48;5.60;99.90
20204;DHT22;10261;49.010;12.034;2023-01-31T00:35:50;5.60;99.90
20204;DHT22;10261;49.010;12.034;2023-01-31T00:36:53;5.60;99.90
20204;DHT22;10261;49.010;12.034;2023-01-31T00:37:55;5.60;99.90
20204;DHT22;10261;49.010;12.034;2023-01-31T00:39:00;5.60;99.90
20204;DHT22;10261;49.010;12.034;2023-01-31T00:40:03;5.60;99.90
20204;DHT22;10261;49.010;12.034;2023-01-31T00:41:06;5.50;99.90
20204;DHT22;10261;49.010;12.034;2023-01-31T00:42:08;5.50;99.90
20204;DHT22;10261;49.010;12.034;2023-01-31T00:43:11;5.50;99.90
20204;DHT22;10261;49.010;12.034;2023-01-31T00:44:13;5.50;99.90
20204;DHT22;10261;49.010;12.034;2023-01-31T00:45:16;5.50;99.90
20204;DHT22;10261;49.010;12.034;2023-01-31T00:46:20;5.50;99.90
20204;DHT22;10261;49.010;12.034;2023-01-31T00:47:24;5.50;99.90
20204;DHT22;10261;49.010;12.034;2023-01-31T00:48:26;5.50;99.90
20204;DHT22;10261;49.010;12.034;2023-01-31T00:49:29;5.50;99.90
20204;DHT22;10261;49.010;12.034;2023-01-31T00:50:32;5.60;99.90
20204;DHT22;10261;49.010;12.034;2023-01-31T00:51:35;5.60;99.90
20204;DHT22;10261;49.010;12.034;2023-01-31T00:52:39;5.60;99.90
20204;DHT22;10261;49.010;12.034;2023-01-31T00:53:41;5.60;99.90
20204;DHT22;10261;49.010;12.034;2023-01-31T00:54:44;5.60;99.90
20204;DHT22;10261;49.010;12.034;2023-01-31T00:55:46;5.70;99.90
20204;DHT22;10261;49.010;12.034;2023-01-31T00:56:49;5.60;99.90
20204;DHT22;10261;49.010;12.034;2023-01-31T00:57:51;5.60;99.90
20204;DHT22;10261;49.010;12.034;2023-01-31T00:58:54;5.70;99.90
20204;DHT22;10261;49.010;12.034;2023-01-31T00:59:56;5.60;99.90
20204;DHT22;10261;49.010;12.034;2023-01-31T01:01:05;5.60;99.90
20204;DHT22;10261;49.010;12.034;2023-01-31T01:02:09;5.60;99.90
20204;DHT22;10261;49.010;12.034;2023-01-31T01:03:12;5.60;99.90
20204;DHT22;10261;49.010;12.034;2023-01-31T01:04:14;5.70;99.90
20204;DHT22;10261;49.010;12.034;2023-01-31T01:05:17;5.70;99.90
20204;DHT22;10261;49.010;12.034;2023-01-31T01:06:20;5.60;99.90
20204;DHT22;10261;49.010;12.034;2023-01-31T01:07:23;5.60;99.90
20204;DHT22;10261;49.010;12.034;2023-01-31T01:08:25;5.70;99.90
20204;DHT22;10261;49.010;12.034;2023-01-31T01:09:28;5.70;99.90
20204;DHT22;10261;49.010;12.034;2023-01-31T01:10:30;5.40;99.90
20204;DHT22;10261;49.010;12.034;2023-01-31T01:11:34;4.60;99.90
20204;DHT22;10261;49.010;12.034;2023-01-31T01:12:37;4.20;99.90
20204;DHT22;10261;49.010;12.034;2023-01-31T01:13:40;4.00;99.90
20204;DHT22;10261;49.010;12.034;2023-01-31T01:14:43;3.90;99.90
20204;DHT22;10261;49.010;12.034;2023-01-31T01:15:46;3.80;99.90
20204;DHT22;10261;49.010;12.034;2023-01-31T01:16:48;3.80;99.90
20204;DHT22;10261;49.010;12.034;2023-01-31T01:17:53;3.70;99.90
20204;DHT22;10261;49.010;12.034;2023-01-31T01:18:56;3.70;99.90
20204;DHT22;10261;49.010;12.034;2023-01-31T01:19:59;3.80;99.90
20204;DHT22;10261;49.010;12.034;2023-01-31T01:21:06;4.20;99.90
20204;DHT22;10261;49.010;12.034;2023-01-31T01:22:09;4.50;99.90
20204;DHT22;10261;49.010;12.034;2023-01-31T01:23:16;4.70;99.90
20204;DHT22;10261;49.010;12.034;2023-01-31T01:24:19;4.80;99.90
20204;DHT22;10261;49.010;12.034;2023-01-31T01:25:21;4.90;99.90
20204;DHT22;10261;49.010;12.034;2023-01-31T01:26:26;5.00;99.90
20204;DHT22;10261;49.010;12.034;2023-01-31T01:27:28;5.10;99.90
20204;DHT22;10261;49.010;12.034;2023-01-31T01:28:32;5.10;99.90
20204;DHT22;10261;49.010;12.034;2023-01-31T01:29:36;5.20;99.90
20204;DHT22;10261;49.010;12.034;2023-01-31T01:30:39;5.30;99.90
20204;DHT22;10261;49.010;12.034;2023-01-31T01:31:41;5.20;99.90
20204;DHT22;10261;49.010;12.034;2023-01-31T01:32:44;5.30;99.90
20204;DHT22;10261;49.010;12.034;2023-01-31T01:33:48;5.40;99.90
20204;DHT22;10261;49.010;12.034;2023-01-31T01:34:51;5.40;99.90
20204;DHT22;10261;49.010;12.034;2023-01-31T01:35:53;5.40;99.90
20204;DHT22;10261;49.010;12.034;2023-01-31T01:37:01;5.30;99.90
20204;DHT22;10261;49.010;12.034;2023-01-31T01:38:10;5.30;99.90
20204;DHT22;10261;49.010;12.034;2023-01-31T01:39:13;5.40;99.90
20204;DHT22;10261;49.010;12.034;2023-01-31T01:40:16;5.40;99.90
20204;DHT22;10261;49.010;12.034;2023-01-31T01:41:20;5.40;99.90
20204;DHT22;10261;49.010;12.034;2023-01-31T01:42:24;5.40;99.90
20204;DHT22;10261;49.010;12.034;2023-01-31T01:43:39;5.40;99.90
20204;DHT22;10261;49.010;12.034;2023-01-31T01:44:48;5.50;99.90
20204;DHT22;10261;49.010;12.034;2023-01-31T01:45:52;5.50;99.90
20204;DHT22;10261;49.010;12.034;2023-01-31T01:46:54;5.40;99.90
20204;DHT22;10261;49.010;12.034;2023-01-31T01:47:59;5.40;99.90
20204;DHT22;10261;49.010;12.034;2023-01-31T01:49:13;5.40;99.90
20204;DHT22;10261;49.010;12.034;2023-01-31T01:50:21;5.50;99.90
20204;DHT22;10261;49.010;12.034;2023-01-31T01:51:24;5.50;99.90
20204;DHT22;10261;49.010;12.034;2023-01-31T01:52:29;5.50;99.90
20204;DHT22;10261;49.010;12.034;2023-01-31T01:53:35;5.50;99.90
20204;DHT22;10261;49.010;12.034;2023-01-31T01:54:43;5.50;99.90
20204;DHT22;10261;49.010;12.034;2023-01-31T01:55:50;5.50;99.90
20204;DHT22;10261;49.010;12.034;2023-01-31T01:56:59;5.50;99.90
20204;DHT22;10261;49.010;12.034;2023-01-31T01:58:04;5.40;99.90
20204;DHT22;10261;49.010;12.034;2023-01-31T01:59:11;5.40;99.90
20204;DHT22;10261;49.010;12.034;2023-01-31T02:00:19;5.40;99.90
20204;DHT22;10261;49.010;12.034;2023-01-31T02:01:24;5.40;99.90
20204;DHT22;10261;49.010;12.034;2023-01-31T02:02:27;5.40;99.90
20204;DHT22;10261;49.010;12.034;2023-01-31T02:03:30;5.50;99.90
20204;DHT22;10261;49.010;12.034;2023-01-31T02:04:36;5.50;99.90
20204;DHT22;10261;49.010;12.034;2023-01-31T02:05:42;5.60;99.90
20204;DHT22;10261;49.010;12.034;2023-01-31T02:06:46;5.70;99.90
20204;DHT22;10261;49.010;12.034;2023-01-31T02:07:49;5.60;99.90
20204;DHT22;10261;49.010;12.034;2023-01-31T02:08:52;5.50;99.90
20204;DHT22;10261;49.010;12.034;2023-01-31T02:10:00;5.40;99.90
20204;DHT22;10261;49.010;12.034;2023-01-31T02:11:07;5.40;99.90
20204;DHT22;10261;49.010;12.034;2023-01-31T02:12:12;5.40;99.90
20204;DHT22;10261;49.010;12.034;2023-01-31T02:13:14;5.40;99.90
20204;DHT22;10261;49.010;12.034;2023-01-31T02:14:18;5.40;99.90
20204;DHT22;10261;49.010;12.034;2023-01-31T02:15:21;5.30;99.90
20204;DHT22;10261;49.010;12.034;2023-01-31T02:16:25;5.30;99.90
20204;DHT22;10261;49.010;12.034;2023-01-31T02:17:27;5.40;99.90
20204;DHT22;10261;49.010;12.034;2023-01-31T02:18:30;5.40;99.90
20204;DHT22;10261;49.010;12.034;2023-01-31T02:19:45;5.40;99.90
20204;DHT22;10261;49.010;12.034;2023-01-31T02:22:29;5.40;99.90
20204;DHT22;10261;49.010;12.034;2023-01-31T02:27:21;5.30;99.90
20204;DHT22;10261;49.010;12.034;2023-01-31T02:28:51;5.40;99.90
20204;DHT22;10261;49.010;12.034;2023-01-31T02:33:13;5.40;99.90
20204;DHT22;10261;49.010;12.034;2023-01-31T02:34:27;5.30;99.90
20204;DHT22;10261;49.010;12.034;2023-01-31T02:35:44;5.40;99.90
20204;DHT22;10261;49.010;12.034;2023-01-31T02:36:58;5.30;99.90
20204;DHT22;10261;49.010;12.034;2023-01-31T02:38:11;5.30;99.90
20204;DHT22;10261;49.010;12.034;2023-01-31T02:39:28;5.30;99.90
20204;DHT22;10261;49.010;12.034;2023-01-31T02:40:36;5.40;99.90
20204;DHT22;10261;49.010;12.034;2023-01-31T02:41:45;5.50;99.90
20204;DHT22;10261;49.010;12.034;2023-01-31T02:42:53;5.40;99.90
20204;DHT22;10261;49.010;12.034;2023-01-31T02:44:02;5.50;99.90
20204;DHT22;10261;49.010;12.034;2023-01-31T02:45:30;5.50;99.90
20204;DHT22;10261;49.010;12.034;2023-01-31T02:46:42;5.50;99.90
20204;DHT22;10261;49.010;12.034;2023-01-31T02:48:00;5.40;99.90
20204;DHT22;10261;49.010;12.034;2023-01-31T02:49:14;5.40;99.90
20204;DHT22;10261;49.010;12.034;2023-01-31T02:50:39;5.40;99.90
20204;DHT22;10261;49.010;12.034;2023-01-31T02:51:48;5.40;99.90
20204;DHT22;10261;49.010;12.034;2023-01-31T02:53:15;5.30;99.90
20204;DHT22;10261;49.010;12.034;2023-01-31T02:54:23;5.30;99.90
20204;DHT22;10261;49.010;12.034;2023-01-31T02:55:52;5.40;99.90
20204;DHT22;10261;49.010;12.034;2023-01-31T02:57:16;5.40;99.90
20204;DHT22;10261;49.010;12.034;2023-01-31T02:58:21;5.40;99.90
20204;DHT22;10261;49.010;12.034;2023-01-31T02:59:26;5.40;99.90
20204;DHT22;10261;49.010;12.034;2023-01-31T03:00:33;5.40;99.90
20204;DHT22;10261;49.010;12.034;2023-01-31T03:01:40;5.50;99.90
20204;DHT22;10261;49.010;12.034;2023-01-31T03:02:44;5.50;99.90
20204;DHT22;10261;49.010;12.034;2023-01-31T03:03:47;5.50;99.90
20204;DHT22;10261;49.010;12.034;2023-01-31T03:04:51;5.40;99.90
20204;DHT22;10261;49.010;12.034;2023-01-31T03:07:31;5.40;99.90
20204;DHT22;10261;49.010;12.034;2023-01-31T03:08:34;5.40;99.90
20204;DHT22;10261;49.010;12.034;2023-01-31T03:09:41;5.40;99.90
20204;DHT22;10261;49.010;12.034;2023-01-31T03:10:58;5.50;99.90
20204;DHT22;10261;49.010;12.034;2023-01-31T03:12:15;5.40;99.90
20204;DHT22;10261;49.010;12.034;2023-01-31T03:13:33;5.50;99.90
20204;DHT22;10261;49.010;12.034;2023-01-31T03:14:43;5.50;99.90
20204;DHT22;10261;49.010;12.034;2023-01-31T03:15:57;5.50;99.90
20204;DHT22;10261;49.010;12.034;2023-01-31T03:17:30;5.50;99.90
20204;DHT22;10261;49.010;12.034;2023-01-31T03:18:41;5.40;99.90
20204;DHT22;10261;49.010;12.034;2023-01-31T03:19:48;5.50;99.90
20204;DHT22;10261;49.010;12.034;2023-01-31T03:20:59;5.50;99.90
20204;DHT22;10261;49.010;12.034;2023-01-31T03:22:09;5.50;99.90
20204;DHT22;10261;49.010;12.034;2023-01-31T03:23:15;5.50;99.90
20204;DHT22;10261;49.010;12.034;2023-01-31T03:24:19;5.50;99.90
20204;DHT22;10261;49.010;12.034;2023-01-31T03:25:25;5.50;99.90
20204;DHT22;10261;49.010;12.034;2023-01-31T03:26:28;5.40;99.90
20204;DHT22;10261;49.010;12.034;2023-01-31T03:27:31;5.40;99.90
20204;DHT22;10261;49.010;12.034;2023-01-31T03:28:35;5.50;99.90
20204;DHT22;10261;49.010;12.034;2023-01-31T03:29:41;5.50;99.90
20204;DHT22;10261;49.010;12.034;2023-01-31T03:30:55;5.40;99.90
20204;DHT22;10261;49.010;12.034;2023-01-31T03:32:05;5.40;99.90
20204;DHT22;10261;49.010;12.034;2023-01-31T03:33:12;5.40;99.90
20204;DHT22;10261;49.010;12.034;2023-01-31T03:34:17;5.40;99.90
20204;DHT22;10261;49.010;12.034;2023-01-31T03:35:20;5.30;99.90
20204;DHT22;10261;49.010;12.034;2023-01-31T03:36:30;5.30;99.90
20204;DHT22;10261;49.010;12.034;2023-01-31T03:37:38;5.40;99.90
20204;DHT22;10261;49.010;12.034;2023-01-31T03:38:47;5.40;99.90
20204;DHT22;10261;49.010;12.034;2023-01-31T03:39:56;5.40;99.90
20204;DHT22;10261;49.010;12.034;2023-01-31T03:41:07;5.40;99.90
20204;DHT22;10261;49.010;12.034;2023-01-31T03:42:17;5.40;99.90
20204;DHT22;10261;49.010;12.034;2023-01-31T03:43:24;5.40;99.90
20204;DHT22;10261;49.010;12.034;2023-01-31T03:44:32;5.40;99.90
20204;DHT22;10261;49.010;12.034;2023-01-31T03:45:41;5.40;99.90
20204;DHT22;10261;49.010;12.034;2023-01-31T03:46:50;5.50;99.90
20204;DHT22;10261;49.010;12.034;2023-01-31T03:47:55;5.50;99.90
20204;DHT22;10261;49.010;12.034;2023-01-31T03:49:03;5.40;99.90
20204;DHT22;10261;49.010;12.034;2023-01-31T03:50:13;5.30;99.90
20204;DHT22;10261;49.010;12.034;2023-01-31T03:51:20;5.30;99.90
20204;DHT22;10261;49.010;12.034;2023-01-31T03:52:30;5.40;99.90
20204;DHT22;10261;49.010;12.034;2023-01-31T03:53:37;5.40;99.90
20204;DHT22;10261;49.010;12.034;2023-01-31T03:54:43;5.40;99.90
20204;DHT22;10261;49.010;12.034;2023-01-31T03:55:50;5.40;99.90
20204;DHT22;10261;49.010;12.034;2023-01-31T03:56:56;5.40;99.90
20204;DHT22;10261;49.010;12.034;2023-01-31T03:58:01;5.40;99.90
20204;DHT22;10261;49.010;12.034;2023-01-31T03:59:08;5.40;99.90
20204;DHT22;10261;49.010;12.034;2023-01-31T04:00:13;5.30;99.90
20204;DHT22;10261;49.010;12.034;2023-01-31T04:01:17;5.20;99.90
20204;DHT22;10261;49.010;12.034;2023-01-31T04:02:23;5.30;99.90
20204;DHT22;10261;49.010;12.034;2023-01-31T04:03:33;5.30;99.90
20204;DHT22;10261;49.010;12.034;2023-01-31T04:04:38;5.30;99.90
20204;DHT22;10261;49.010;12.034;2023-01-31T04:05:42;5.30;99.90
20204;DHT22;10261;49.010;12.034;2023-01-31T04:06:44;5.40;99.90
20204;DHT22;10261;49.010;12.034;2023-01-31T04:07:48;5.40;99.90
20204;DHT22;10261;49.010;12.034;2023-01-31T04:08:51;5.40;99.90
20204;DHT22;10261;49.010;12.034;2023-01-31T04:09:54;5.30;99.90
20204;DHT22;10261;49.010;12.034;2023-01-31T04:10:57;5.30;99.90
20204;DHT22;10261;49.010;12.034;2023-01-31T04:12:03;5.30;99.90
20204;DHT22;10261;49.010;12.034;2023-01-31T04:13:05;5.20;99.90
20204;DHT22;10261;49.010;12.034;2023-01-31T04:14:08;5.20;99.90
20204;DHT22;10261;49.010;12.034;2023-01-31T04:15:12;5.20;99.90
20204;DHT22;10261;49.010;12.034;2023-01-31T04:16:15;5.20;99.90
20204;DHT22;10261;49.010;12.034;2023-01-31T04:17:17;5.20;99.90
20204;DHT22;10261;49.010;12.034;2023-01-31T04:18:20;5.20;99.90
20204;DHT22;10261;49.010;12.034;2023-01-31T04:19:22;5.20;99.90
20204;DHT22;10261;49.010;12.034;2023-01-31T04:20:25;5.30;99.90
20204;DHT22;10261;49.010;12.034;2023-01-31T04:21:27;5.20;99.90
20204;DHT22;10261;49.010;12.034;2023-01-31T04:22:30;5.30;99.90
20204;DHT22;10261;49.010;12.034;2023-01-31T04:23:34;5.30;99.90
20204;DHT22;10261;49.010;12.034;2023-01-31T04:24:37;5.30;99.90
20204;DHT22;10261;49.010;12.034;2023-01-31T04:25:39;5.30;99.90
20204;DHT22;10261;49.010;12.034;2023-01-31T04:26:42;5.30;99.90
20204;DHT22;10261;49.010;12.034;2023-01-31T04:27:44;5.30;99.90
20204;DHT22;10261;49.010;12.034;2023-01-31T04:28:47;5.30;99.90
20204;DHT22;10261;49.010;12.034;2023-01-31T04:29:49;5.30;99.90
20204;DHT22;10261;49.010;12.034;2023-01-31T04:30:52;5.30;99.90
20204;DHT22;10261;49.010;12.034;2023-01-31T04:31:54;5.30;99.90
20204;DHT22;10261;49.010;12.034;2023-01-31T04:32:58;5.40;99.90
20204;DHT22;10261;49.010;12.034;2023-01-31T04:33:59;5.30;99.90
20204;DHT22;10261;49.010;12.034;2023-01-31T04:35:03;5.20;99.90
20204;DHT22;10261;49.010;12.034;2023-01-31T04:36:06;5.30;99.90
20204;DHT22;10261;49.010;12.034;2023-01-31T04:37:09;5.30;99.90
20204;DHT22;10261;49.010;12.034;2023-01-31T04:38:11;5.30;99.90
20204;DHT22;10261;49.010;12.034;2023-01-31T04:39:16;5.30;99.90
20204;DHT22;10261;49.010;12.034;2023-01-31T04:40:18;5.30;99.90
20204;DHT22;10261;49.010;12.034;2023-01-31T04:41:21;5.30;99.90
20204;DHT22;10261;49.010;12.034;2023-01-31T04:42:23;5.40;99.90
20204;DHT22;10261;49.010;12.034;2023-01-31T04:43:26;5.30;99.90
20204;DHT22;10261;49.010;12.034;2023-01-31T04:44:28;5.30;99.90
20204;DHT22;10261;49.010;12.034;2023-01-31T04:45:31;5.30;99.90
20204;DHT22;10261;49.010;12.034;2023-01-31T04:46:33;5.30;99.90
20204;DHT22;10261;49.010;12.034;2023-01-31T04:47:37;5.30;99.90
20204;DHT22;10261;49.010;12.034;2023-01-31T04:48:39;5.30;99.90
20204;DHT22;10261;49.010;12.034;2023-01-31T04:49:42;5.40;99.90
20204;DHT22;10261;49.010;12.034;2023-01-31T04:50:45;5.30;99.90
20204;DHT22;10261;49.010;12.034;2023-01-31T04:51:47;5.30;99.90
20204;DHT22;10261;49.010;12.034;2023-01-31T04:52:50;5.30;99.90
20204;DHT22;10261;49.010;12.034;2023-01-31T04:53:53;5.30;99.90
20204;DHT22;10261;49.010;12.034;2023-01-31T04:54:56;5.30;99.90
20204;DHT22;10261;49.010;12.034;2023-01-31T04:55:59;5.30;99.90
20204;DHT22;10261;49.010;12.034;2023-01-31T04:57:01;5.40;99.90
20204;DHT22;10261;49.010;12.034;2023-01-31T04:58:04;5.40;99.90
20204;DHT22;10261;49.010;12.034;2023-01-31T04:59:08;5.40;99.90
20204;DHT22;10261;49.010;12.034;2023-01-31T05:00:12;5.40;99.90
20204;DHT22;10261;49.010;12.034;2023-01-31T05:01:14;5.40;99.90
20204;DHT22;10261;49.010;12.034;2023-01-31T05:02:17;5.40;99.90
20204;DHT22;10261;49.010;12.034;2023-01-31T05:03:19;5.50;99.90
20204;DHT22;10261;49.010;12.034;2023-01-31T05:04:22;5.40;99.90
20204;DHT22;10261;49.010;12.034;2023-01-31T05:05:26;5.40;99.90
20204;DHT22;10261;49.010;12.034;2023-01-31T05:06:29;5.40;99.90
20204;DHT22;10261;49.010;12.034;2023-01-31T05:07:31;5.40;99.90
20204;DHT22;10261;49.010;12.034;2023-01-31T05:08:34;5.40;99.90
20204;DHT22;10261;49.010;12.034;2023-01-31T05:09:36;5.40;99.90
20204;DHT22;10261;49.010;12.034;2023-01-31T05:10:40;5.40;99.90
20204;DHT22;10261;49.010;12.034;2023-01-31T05:11:43;5.50;99.90
20204;DHT22;10261;49.010;12.034;2023-01-31T05:12:47;5.50;99.90
20204;DHT22;10261;49.010;12.034;2023-01-31T05:13:49;5.40;99.90
20204;DHT22;10261;49.010;12.034;2023-01-31T05:14:52;5.40;99.90
20204;DHT22;10261;49.010;12.034;2023-01-31T05:15:54;5.40;99.90
20204;DHT22;10261;49.010;12.034;2023-01-31T05:16:58;5.40;99.90
20204;DHT22;10261;49.010;12.034;2023-01-31T05:18:01;5.40;99.90
20204;DHT22;10261;49.010;12.034;2023-01-31T05:19:05;5.50;99.90
20204;DHT22;10261;49.010;12.034;2023-01-31T05:20:09;5.40;99.90
20204;DHT22;10261;49.010;12.034;2023-01-31T05:21:11;5.40;99.90
20204;DHT22;10261;49.010;12.034;2023-01-31T05:22:14;5.30;99.90
20204;DHT22;10261;49.010;12.034;2023-01-31T05:23:17;5.40;99.90
20204;DHT22;10261;49.010;12.034;2023-01-31T05:24:20;5.30;99.90
20204;DHT22;10261;49.010;12.034;2023-01-31T05:25:23;5.30;99.90
20204;DHT22;10261;49.010;12.034;2023-01-31T05:26:27;5.40;99.90
20204;DHT22;10261;49.010;12.034;2023-01-31T05:27:29;5.40;99.90
20204;DHT22;10261;49.010;12.034;2023-01-31T05:28:32;5.40;99.90
20204;DHT22;10261;49.010;12.034;2023-01-31T05:29:34;5.40;99.90
20204;DHT22;10261;49.010;12.034;2023-01-31T05:30:38;5.30;99.90
20204;DHT22;10261;49.010;12.034;2023-01-31T05:31:40;5.40;99.90
20204;DHT22;10261;49.010;12.034;2023-01-31T05:32:43;5.40;99.90
20204;DHT22;10261;49.010;12.034;2023-01-31T05:33:46;5.50;99.90
20204;DHT22;10261;49.010;12.034;2023-01-31T05:34:49;5.40;99.90
20204;DHT22;10261;49.010;12.034;2023-01-31T05:35:51;5.40;99.90
20204;DHT22;10261;49.010;12.034;2023-01-31T05:36:55;5.30;99.90
20204;DHT22;10261;49.010;12.034;2023-01-31T05:37:57;5.50;99.90
20204;DHT22;10261;49.010;12.034;2023-01-31T05:39:00;5.40;99.90
20204;DHT22;10261;49.010;12.034;2023-01-31T05:40:03;5.40;99.90
20204;DHT22;10261;49.010;12.034;2023-01-31T05:41:06;5.40;99.90
20204;DHT22;10261;49.010;12.034;2023-01-31T05:42:09;5.40;99.90
20204;DHT22;10261;49.010;12.034;2023-01-31T05:43:12;5.40;99.90
20204;DHT22;10261;49.010;12.034;2023-01-31T05:44:14;5.40;99.90
20204;DHT22;10261;49.010;12.034;2023-01-31T05:45:17;5.50;99.90
20204;DHT22;10261;49.010;12.034;2023-01-31T05:46:20;5.40;99.90
20204;DHT22;10261;49.010;12.034;2023-01-31T05:47:23;5.40;99.90
20204;DHT22;10261;49.010;12.034;2023-01-31T05:48:25;5.40;99.90
20204;DHT22;10261;49.010;12.034;2023-01-31T05:49:28;5.50;99.90
20204;DHT22;10261;49.010;12.034;2023-01-31T05:50:34;5.50;99.90
20204;DHT22;10261;49.010;12.034;2023-01-31T05:51:37;5.40;99.90
20204;DHT22;10261;49.010;12.034;2023-01-31T05:52:39;5.40;99.90
20204;DHT22;10261;49.010;12.034;2023-01-31T05:53:42;5.40;99.90
20204;DHT22;10261;49.010;12.034;2023-01-31T05:54:44;5.40;99.90
20204;DHT22;10261;49.010;12.034;2023-01-31T05:55:47;5.40;99.90
20204;DHT22;10261;49.010;12.034;2023-01-31T05:56:50;5.40;99.90
20204;DHT22;10261;49.010;12.034;2023-01-31T05:57:55;5.40;99.90
20204;DHT22;10261;49.010;12.034;2023-01-31T05:58:57;5.40;99.90
20204;DHT22;10261;49.010;12.034;2023-01-31T06:00:02;5.40;99.90
20204;DHT22;10261;49.010;12.034;2023-01-31T06:01:04;5.40;99.90
20204;DHT22;10261;49.010;12.034;2023-01-31T06:02:07;5.40;99.90
20204;DHT22;10261;49.010;12.034;2023-01-31T06:03:12;5.50;99.90
20204;DHT22;10261;49.010;12.034;2023-01-31T06:04:14;5.50;99.90
20204;DHT22;10261;49.010;12.034;2023-01-31T06:05:17;5.40;99.90
20204;DHT22;10261;49.010;12.034;2023-01-31T06:06:20;5.50;99.90
20204;DHT22;10261;49.010;12.034;2023-01-31T06:07:23;5.50;99.90
20204;DHT22;10261;49.010;12.034;2023-01-31T06:08:25;5.40;99.90
20204;DHT22;10261;49.010;12.034;2023-01-31T06:09:28;5.40;99.90
20204;DHT22;10261;49.010;12.034;2023-01-31T06:10:30;5.40;99.90
20204;DHT22;10261;49.010;12.034;2023-01-31T06:11:36;5.40;99.90
20204;DHT22;10261;49.010;12.034;2023-01-31T06:12:38;5.40;99.90
20204;DHT22;10261;49.010;12.034;2023-01-31T06:13:43;5.40;99.90
20204;DHT22;10261;49.010;12.034;2023-01-31T06:14:45;5.40;99.90
20204;DHT22;10261;49.010;12.034;2023-01-31T06:15:48;5.30;99.90
20204;DHT22;10261;49.010;12.034;2023-01-31T06:16:50;5.30;99.90
20204;DHT22;10261;49.010;12.034;2023-01-31T06:17:53;5.30;99.90
20204;DHT22;10261;49.010;12.034;2023-01-31T06:18:55;5.30;99.90
20204;DHT22;10261;49.010;12.034;2023-01-31T06:19:58;5.40;99.90
20204;DHT22;10261;49.010;12.034;2023-01-31T06:21:01;5.40;99.90
20204;DHT22;10261;49.010;12.034;2023-01-31T06:22:04;5.50;99.90
20204;DHT22;10261;49.010;12.034;2023-01-31T06:23:06;5.40;99.90
20204;DHT22;10261;49.010;12.034;2023-01-31T06:24:09;5.40;99.90
20204;DHT22;10261;49.010;12.034;2023-01-31T06:25:11;5.50;99.90
20204;DHT22;10261;49.010;12.034;2023-01-31T06:26:14;5.50;99.90
20204;DHT22;10261;49.010;12.034;2023-01-31T06:27:16;5.40;99.90
20204;DHT22;10261;49.010;12.034;2023-01-31T06:28:19;5.40;99.90
20204;DHT22;10261;49.010;12.034;2023-01-31T06:29:22;5.40;99.90
20204;DHT22;10261;49.010;12.034;2023-01-31T06:30:25;5.40;99.90
20204;DHT22;10261;49.010;12.034;2023-01-31T06:31:28;5.40;99.90
20204;DHT22;10261;49.010;12.034;2023-01-31T06:32:31;5.40;99.90
20204;DHT22;10261;49.010;12.034;2023-01-31T06:33:34;5.40;99.90
20204;DHT22;10261;49.010;12.034;2023-01-31T06:34:47;5.40;99.90
20204;DHT22;10261;49.010;12.034;2023-01-31T06:35:50;5.40;99.90
20204;DHT22;10261;49.010;12.034;2023-01-31T06:36:52;5.40;99.90
20204;DHT22;10261;49.010;12.034;2023-01-31T06:37:55;5.40;99.90
20204;DHT22;10261;49.010;12.034;2023-01-31T06:38:58;5.30;99.90
20204;DHT22;10261;49.010;12.034;2023-01-31T06:40:00;5.40;99.90
20204;DHT22;10261;49.010;12.034;2023-01-31T06:41:04;5.30;99.90
20204;DHT22;10261;49.010;12.034;2023-01-31T06:42:06;5.30;99.90
20204;DHT22;10261;49.010;12.034;2023-01-31T06:43:09;5.40;99.90
20204;DHT22;10261;49.010;12.034;2023-01-31T06:44:11;5.40;99.90
20204;DHT22;10261;49.010;12.034;2023-01-31T06:45:15;5.40;99.90
20204;DHT22;10261;49.010;12.034;2023-01-31T06:46:18;5.50;99.90
20204;DHT22;10261;49.010;12.034;2023-01-31T06:47:20;5.50;99.90
20204;DHT22;10261;49.010;12.034;2023-01-31T06:48:23;5.50;99.90
20204;DHT22;10261;49.010;12.034;2023-01-31T06:49:26;5.40;99.90
20204;DHT22;10261;49.010;12.034;2023-01-31T06:50:29;5.40;99.90
20204;DHT22;10261;49.010;12.034;2023-01-31T06:51:31;5.40;99.90
20204;DHT22;10261;49.010;12.034;2023-01-31T06:52:34;5.40;99.90
20204;DHT22;10261;49.010;12.034;2023-01-31T06:53:36;5.40;99.90
20204;DHT22;10261;49.010;12.034;2023-01-31T06:54:39;5.30;99.90
20204;DHT22;10261;49.010;12.034;2023-01-31T06:55:42;5.40;99.90
20204;DHT22;10261;49.010;12.034;2023-01-31T06:56:45;5.40;99.90
20204;DHT22;10261;49.010;12.034;2023-01-31T06:57:47;5.40;99.90
20204;DHT22;10261;49.010;12.034;2023-01-31T06:58:50;5.50;99.90